createdAt,value
2022-10-19T00:01:41.051Z,10.98
2022-10-19T00:04:26.051Z,11.02
2022-10-19T00:07:10.936Z,11.04
2022-10-19T00:09:55.977Z,11.10
2022-10-19T00:12:40.913Z,11.17
2022-10-19T00:15:26.194Z,11.21
2022-10-19T00:18:11.195Z,11.25
2022-10-19T00:21:04.707Z,11.24
2022-10-19T00:23:49.724Z,11.25
2022-10-19T00:26:34.969Z,11.32
2022-10-19T00:29:19.765Z,11.31
2022-10-19T00:32:05.178Z,11.33
2022-10-19T00:34:50.189Z,11.32
2022-10-19T00:37:35.218Z,11.33
2022-10-19T00:40:20.127Z,11.33
2022-10-19T00:43:13.583Z,11.39
2022-10-19T00:45:58.862Z,11.39
2022-10-19T00:48:44.024Z,11.37
2022-10-19T00:51:30.662Z,11.33
2022-10-19T00:54:17.441Z,11.35
2022-10-19T00:57:04.697Z,11.35
2022-10-19T00:59:50.488Z,11.37
2022-10-19T01:02:36.069Z,11.44
2022-10-19T01:05:21.234Z,11.52
2022-10-19T01:08:09.736Z,11.53
2022-10-19T01:11:31.709Z,11.51
2022-10-19T01:14:34.830Z,11.56
2022-10-19T01:17:44.009Z,11.55
2022-10-19T01:21:05.849Z,11.53
2022-10-19T01:24:18.177Z,11.51
2022-10-19T01:27:02.958Z,11.51
2022-10-19T01:29:59.973Z,11.54
2022-10-19T01:33:09.524Z,11.54
2022-10-19T01:36:09.825Z,11.55
2022-10-19T01:39:16.228Z,11.60
2022-10-19T01:42:14.242Z,11.62
2022-10-19T01:45:02.326Z,11.67
2022-10-19T01:48:06.478Z,11.69
2022-10-19T01:50:55.262Z,11.68
2022-10-19T01:53:48.744Z,11.61
2022-10-19T01:56:35.461Z,11.56
2022-10-19T01:59:21.932Z,11.47
2022-10-19T02:02:09.737Z,11.39
2022-10-19T02:04:57.345Z,11.33
2022-10-19T02:07:46.161Z,11.30
2022-10-19T02:10:34.616Z,11.35
2022-10-19T02:13:21.108Z,11.40
2022-10-19T02:16:13.899Z,11.48
2022-10-19T02:19:00.396Z,11.53
2022-10-19T02:21:45.905Z,11.51
2022-10-19T02:24:30.653Z,11.48
2022-10-19T02:27:16.698Z,11.43
2022-10-19T02:30:02.276Z,11.41
2022-10-19T02:32:47.521Z,11.39
2022-10-19T02:35:32.697Z,11.38
2022-10-19T02:38:21.784Z,11.38
2022-10-19T02:41:09.336Z,11.38
2022-10-19T02:43:59.783Z,11.38
2022-10-19T02:46:51.164Z,11.35
2022-10-19T02:49:37.120Z,11.37
2022-10-19T02:52:21.860Z,11.34
2022-10-19T02:55:08.312Z,11.36
2022-10-19T02:57:53.206Z,11.38
2022-10-19T03:00:38.062Z,11.34
2022-10-19T03:03:22.893Z,11.32
2022-10-19T03:06:07.864Z,11.28
2022-10-19T03:08:52.877Z,11.27
2022-10-19T03:11:37.793Z,11.22
2022-10-19T03:14:22.900Z,11.20
2022-10-19T03:17:08.116Z,11.17
2022-10-19T03:19:53.239Z,11.15
2022-10-19T03:22:38.350Z,11.10
2022-10-19T03:25:23.235Z,11.03
2022-10-19T03:28:09.747Z,10.97
2022-10-19T03:30:54.665Z,10.90
2022-10-19T03:33:40.009Z,10.87
2022-10-19T03:36:27.245Z,10.80
2022-10-19T03:39:14.038Z,10.81
2022-10-19T03:41:59.051Z,10.79
2022-10-19T03:44:44.029Z,10.74
2022-10-19T03:47:29.003Z,10.69
2022-10-19T03:50:16.342Z,10.67
2022-10-19T03:53:00.792Z,10.66
2022-10-19T03:55:45.946Z,10.68
2022-10-19T03:58:34.189Z,10.71
2022-10-19T04:01:22.245Z,10.69
2022-10-19T04:04:11.958Z,10.66
2022-10-19T04:06:56.714Z,10.57
2022-10-19T04:09:41.619Z,10.55
2022-10-19T04:12:26.596Z,10.53
2022-10-19T04:15:11.509Z,10.55
2022-10-19T04:17:56.567Z,10.55
2022-10-19T04:20:43.229Z,10.54
2022-10-19T04:23:30.190Z,10.54
2022-10-19T04:26:15.339Z,10.51
2022-10-19T04:29:00.871Z,10.51
2022-10-19T04:31:48.726Z,10.47
2022-10-19T04:34:36.352Z,10.43
2022-10-19T04:38:01.904Z,10.44
2022-10-19T04:40:46.649Z,10.42
2022-10-19T04:43:31.841Z,10.43
2022-10-19T04:46:18.695Z,10.43
2022-10-19T04:49:05.564Z,10.43
2022-10-19T04:51:50.647Z,10.43
2022-10-19T04:54:35.600Z,10.41
2022-10-19T04:57:20.577Z,10.42
2022-10-19T05:00:06.419Z,10.41
2022-10-19T05:02:51.225Z,10.43
2022-10-19T05:05:36.415Z,10.45
2022-10-19T05:08:21.424Z,10.46
2022-10-19T05:11:09.284Z,10.50
2022-10-19T05:13:56.046Z,10.52
2022-10-19T05:16:41.243Z,10.55
2022-10-19T05:19:26.281Z,10.56
2022-10-19T05:22:11.319Z,10.57
2022-10-19T05:24:58.165Z,10.59
2022-10-19T05:27:43.267Z,10.65
2022-10-19T05:30:28.326Z,10.69
2022-10-19T05:33:13.453Z,10.78
2022-10-19T05:36:08.861Z,10.84
2022-10-19T05:38:56.648Z,10.80
2022-10-19T05:41:46.354Z,10.84
2022-10-19T05:44:31.059Z,10.89
2022-10-19T05:47:15.907Z,10.95
2022-10-19T05:50:00.951Z,10.96
2022-10-19T05:52:45.790Z,11.02
2022-10-19T05:55:34.702Z,11.07
2022-10-19T05:58:19.787Z,11.08
2022-10-19T06:01:05.075Z,11.15
2022-10-19T06:03:55.616Z,11.21
2022-10-19T06:06:42.104Z,11.25
2022-10-19T06:09:27.225Z,11.18
2022-10-19T06:12:12.342Z,11.29
2022-10-19T06:14:57.335Z,11.36
2022-10-19T06:17:42.233Z,11.48
2022-10-19T06:20:29.886Z,11.50
2022-10-19T06:23:14.468Z,11.54
2022-10-19T06:26:06.343Z,11.54
2022-10-19T06:28:55.616Z,11.53
2022-10-19T06:31:40.560Z,11.47
2022-10-19T06:34:25.937Z,11.46
2022-10-19T06:37:11.200Z,11.50
2022-10-19T06:39:56.162Z,11.60
2022-10-19T06:42:41.278Z,11.56
2022-10-19T06:45:26.383Z,11.53
2022-10-19T06:48:11.253Z,11.50
2022-10-19T06:51:33.592Z,11.51
2022-10-19T06:54:18.174Z,11.35
2022-10-19T06:57:02.846Z,11.32
2022-10-19T06:59:50.168Z,11.20
2022-10-19T07:02:37.637Z,11.18
2022-10-19T07:05:22.744Z,11.22
2022-10-19T07:08:07.814Z,11.21
2022-10-19T07:10:55.050Z,11.28
2022-10-19T07:13:39.985Z,11.29
2022-10-19T07:16:24.697Z,11.41
2022-10-19T07:19:09.908Z,11.36
2022-10-19T07:21:54.615Z,11.32
2022-10-19T07:24:39.725Z,11.36
2022-10-19T07:27:24.746Z,11.34
2022-10-19T07:30:10.045Z,11.44
2022-10-19T07:32:54.797Z,11.86
2022-10-19T07:35:39.723Z,12.52
2022-10-19T07:38:24.724Z,12.98
2022-10-19T07:41:17.484Z,13.42
2022-10-19T07:44:02.703Z,13.69
2022-10-19T07:46:47.606Z,13.79
2022-10-19T07:49:32.676Z,13.81
2022-10-19T07:52:17.523Z,13.31
2022-10-19T07:55:02.598Z,12.88
2022-10-19T07:57:48.606Z,12.74
2022-10-19T08:00:33.532Z,12.89
2022-10-19T08:04:13.824Z,13.00
2022-10-19T08:06:24.238Z,12.89
2022-10-19T08:09:11.326Z,12.82
2022-10-19T08:12:00.452Z,12.84
2022-10-19T08:14:47.334Z,12.98
2022-10-19T08:17:35.875Z,13.22
2022-10-19T08:20:20.805Z,13.50
2022-10-19T08:23:06.054Z,13.71
2022-10-19T08:25:50.935Z,13.51
2022-10-19T08:28:35.887Z,13.17
2022-10-19T08:31:22.258Z,13.31
2022-10-19T08:34:08.069Z,13.41
2022-10-19T08:36:52.933Z,13.67
2022-10-19T08:39:38.044Z,13.89
2022-10-19T08:42:33.178Z,13.96
2022-10-19T08:45:25.059Z,13.85
2022-10-19T08:48:15.808Z,13.53
2022-10-19T08:51:00.995Z,13.21
2022-10-19T08:53:54.050Z,12.85
2022-10-19T08:57:02.396Z,12.84
2022-10-19T09:00:17.045Z,12.67
2022-10-19T09:03:56.854Z,12.49
2022-10-19T09:06:53.494Z,12.71
2022-10-19T09:09:43.934Z,12.87
2022-10-19T09:12:44.488Z,12.95
2022-10-19T09:15:47.603Z,12.90
2022-10-19T09:18:33.963Z,13.35
2022-10-19T09:21:47.683Z,13.54
2022-10-19T09:25:02.724Z,13.51
2022-10-19T09:30:47.836Z,13.29
2022-10-19T09:33:37.637Z,13.45
2022-10-19T09:36:39.225Z,13.59
2022-10-19T09:39:30.355Z,13.46
2022-10-19T09:42:28.787Z,13.45
2022-10-19T09:45:40.325Z,13.37
2022-10-19T09:48:51.358Z,13.32
2022-10-19T09:51:52.320Z,13.18
2022-10-19T09:54:38.941Z,13.20
2022-10-19T09:57:25.497Z,12.98
2022-10-19T10:00:22.924Z,12.95
2022-10-19T10:03:30.409Z,12.94
2022-10-19T10:06:17.656Z,12.91
2022-10-19T10:09:03.095Z,12.93
2022-10-19T10:11:50.258Z,13.04
2022-10-19T10:14:39.522Z,13.07
2022-10-19T10:17:30.278Z,13.08
2022-10-19T10:20:27.255Z,13.06
2022-10-19T10:23:23.435Z,13.06
2022-10-19T10:26:18.697Z,13.17
2022-10-19T10:29:16.770Z,13.34
2022-10-19T10:32:11.640Z,13.41
2022-10-19T10:35:02.532Z,13.67
2022-10-19T10:37:48.116Z,13.78
2022-10-19T10:40:33.137Z,13.92
2022-10-19T10:43:22.087Z,13.74
2022-10-19T10:46:25.704Z,13.38
2022-10-19T10:49:33.554Z,13.19
2022-10-19T10:52:19.527Z,13.13
2022-10-19T10:55:10.659Z,13.09
2022-10-19T10:58:25.611Z,13.02
2022-10-19T11:01:27.897Z,12.91
2022-10-19T11:04:22.186Z,12.87
2022-10-19T11:07:26.384Z,12.97
2022-10-19T11:10:30.748Z,13.00
2022-10-19T11:13:56.261Z,12.93
2022-10-19T11:16:47.510Z,13.08
2022-10-19T11:19:40.536Z,13.12
2022-10-19T11:22:43.619Z,13.23
2022-10-19T11:25:49.076Z,13.28
2022-10-19T11:28:40.673Z,13.18
2022-10-19T11:31:45.551Z,13.23
2022-10-19T11:35:06.091Z,13.31
2022-10-19T11:38:22.595Z,13.39
2022-10-19T11:41:19.805Z,13.37
2022-10-19T11:44:11.937Z,13.55
2022-10-19T11:47:20.090Z,13.85
2022-10-19T11:50:32.244Z,14.05
2022-10-19T11:53:20.508Z,14.25
2022-10-19T11:56:07.979Z,14.40
2022-10-19T11:59:22.149Z,14.12
2022-10-19T12:02:25.163Z,13.96
2022-10-19T12:05:47.146Z,13.76
2022-10-19T12:08:56.090Z,12.88
2022-10-19T12:12:18.946Z,11.85
2022-10-19T12:15:23.323Z,10.92
2022-10-19T12:18:46.148Z,10.34
2022-10-19T12:21:35.877Z,9.97
2022-10-19T12:24:58.499Z,9.93
2022-10-19T12:27:46.913Z,9.89
2022-10-19T12:31:09.411Z,9.86
2022-10-19T12:34:01.358Z,9.86
2022-10-19T12:37:23.790Z,9.98
2022-10-19T12:40:26.378Z,10.06
2022-10-19T12:43:48.826Z,10.24
2022-10-19T12:46:36.434Z,10.67
2022-10-19T12:49:59.197Z,11.24
2022-10-19T12:52:48.231Z,11.87
2022-10-19T12:56:10.406Z,12.33
2022-10-19T12:59:00.953Z,12.57
2022-10-19T13:02:04.318Z,12.38
2022-10-19T13:04:53.468Z,12.40
2022-10-19T13:08:15.581Z,12.56
2022-10-19T13:11:15.599Z,12.86
2022-10-19T13:14:37.816Z,13.22
2022-10-19T13:17:46.163Z,13.20
2022-10-19T13:21:08.586Z,13.23
2022-10-19T13:24:25.576Z,13.33
2022-10-19T13:27:47.852Z,13.13
2022-10-19T13:30:38.578Z,13.25
2022-10-19T13:34:01.314Z,13.44
2022-10-19T13:37:01.469Z,13.27
2022-10-19T13:40:24.932Z,13.26
2022-10-19T13:43:25.744Z,13.33
2022-10-19T13:46:51.104Z,13.19
2022-10-19T13:50:07.350Z,12.73
2022-10-19T13:53:29.502Z,12.37
2022-10-19T13:56:44.730Z,12.10
2022-10-19T14:00:07.300Z,11.99
2022-10-19T14:03:30.858Z,12.00
2022-10-19T14:06:44.362Z,12.07
2022-10-19T14:10:07.719Z,12.23
2022-10-19T14:12:52.965Z,12.26
2022-10-19T14:16:15.258Z,12.27
2022-10-19T14:19:00.046Z,12.08
2022-10-19T14:22:22.334Z,11.89
2022-10-19T14:40:26.800Z,9.40
2022-10-19T14:43:24.761Z,9.31
2022-10-19T14:46:15.867Z,9.04
2022-10-19T14:49:03.249Z,8.87
2022-10-19T14:52:00.732Z,8.72
2022-10-19T14:54:50.914Z,8.61
2022-10-19T14:57:39.538Z,8.52
2022-10-19T15:03:19.999Z,8.49
2022-10-19T15:06:06.438Z,8.45
2022-10-19T15:08:59.209Z,8.41
2022-10-19T15:11:46.581Z,8.40
2022-10-19T15:14:32.009Z,8.32
2022-10-19T15:17:29.765Z,8.27
2022-10-19T15:20:36.473Z,8.27
2022-10-19T15:23:31.943Z,8.28
2022-10-19T15:26:26.423Z,8.34
2022-10-19T15:29:21.798Z,8.35
2022-10-19T15:32:23.386Z,8.40
2022-10-19T15:35:21.106Z,8.43
2022-10-19T15:38:27.700Z,8.39
2022-10-19T15:41:29.768Z,8.35
2022-10-19T15:44:42.241Z,8.29
2022-10-19T15:47:27.347Z,8.23
2022-10-19T15:50:31.224Z,8.14
2022-10-19T15:53:16.344Z,8.12
2022-10-19T15:56:01.389Z,8.10
2022-10-19T15:58:51.006Z,8.05
2022-10-19T16:01:35.948Z,7.97
2022-10-19T16:04:21.122Z,7.93
2022-10-19T16:07:06.533Z,7.89
2022-10-19T16:09:51.812Z,7.86
2022-10-19T16:12:36.934Z,7.80
2022-10-19T16:15:23.255Z,7.69
2022-10-19T16:18:09.721Z,7.70
2022-10-19T16:20:54.376Z,7.71
2022-10-19T16:23:41.987Z,7.76
2022-10-19T16:26:28.177Z,7.80
2022-10-19T16:29:13.045Z,7.82
2022-10-19T16:31:58.117Z,7.82
2022-10-19T16:34:43.039Z,7.81
2022-10-19T16:37:27.753Z,7.75
2022-10-19T16:40:13.128Z,7.73
2022-10-19T16:42:59.828Z,7.69
2022-10-19T16:45:44.644Z,7.65
2022-10-19T16:48:29.446Z,7.61
2022-10-19T16:51:19.917Z,7.60
2022-10-19T16:54:06.729Z,7.59
2022-10-19T16:56:52.040Z,7.53
2022-10-19T16:59:36.786Z,7.52
2022-10-19T17:02:22.640Z,7.54
2022-10-19T17:05:07.779Z,7.51
2022-10-19T17:07:52.711Z,7.47
2022-10-19T17:10:37.890Z,7.46
2022-10-19T17:13:23.019Z,7.46
2022-10-19T17:16:08.899Z,7.49
2022-10-19T17:18:56.198Z,7.52
2022-10-19T17:21:41.774Z,7.56
2022-10-19T17:24:27.051Z,7.58
2022-10-19T17:27:12.239Z,7.61
2022-10-19T17:29:56.879Z,7.60
2022-10-19T17:32:41.722Z,7.58
2022-10-19T17:35:26.683Z,7.52
2022-10-19T17:38:11.639Z,7.51
2022-10-19T17:41:02.012Z,7.52
2022-10-19T17:43:48.223Z,7.56
2022-10-19T17:46:34.466Z,7.58
2022-10-19T17:49:19.545Z,7.63
2022-10-19T17:52:04.949Z,7.61
2022-10-19T17:55:11.045Z,7.63
2022-10-19T17:57:54.782Z,7.63
2022-10-19T18:00:39.838Z,7.29
2022-10-19T18:03:26.837Z,6.99
2022-10-19T18:06:24.159Z,6.39
2022-10-19T18:09:09.432Z,5.98
2022-10-19T18:11:54.512Z,5.79
2022-10-19T18:14:39.974Z,5.68
2022-10-19T18:17:27.695Z,5.58
2022-10-19T18:20:13.077Z,5.52
2022-10-19T18:22:57.860Z,5.48
2022-10-19T18:25:53.821Z,5.42
2022-10-19T18:28:39.958Z,5.41
2022-10-19T18:31:28.732Z,5.37
2022-10-19T18:34:15.157Z,5.36
2022-10-19T18:37:00.057Z,5.35
2022-10-19T18:39:45.004Z,5.24
2022-10-19T18:42:29.966Z,5.16
2022-10-19T18:45:15.058Z,5.11
2022-10-19T18:48:00.029Z,5.04
2022-10-19T18:50:44.970Z,4.95
2022-10-19T18:53:30.952Z,4.84
2022-10-19T18:56:17.608Z,4.75
2022-10-19T18:59:03.974Z,4.69
2022-10-19T19:01:48.764Z,4.62
2022-10-19T19:04:36.000Z,4.57
2022-10-19T19:07:20.944Z,4.50
2022-10-19T19:10:06.368Z,4.51
2022-10-19T19:12:51.376Z,4.47
2022-10-19T19:15:36.368Z,4.44
2022-10-19T19:18:22.195Z,4.42
2022-10-19T19:21:14.733Z,4.40
2022-10-19T19:24:02.441Z,4.32
2022-10-19T19:26:50.774Z,4.30
2022-10-19T19:29:35.972Z,4.21
2022-10-19T19:32:21.066Z,4.14
2022-10-19T19:35:06.369Z,4.11
2022-10-19T19:37:51.385Z,4.11
2022-10-19T19:40:44.801Z,4.05
2022-10-19T19:43:32.340Z,4.04
2022-10-19T19:46:18.622Z,3.94
2022-10-19T19:49:04.131Z,3.93
2022-10-19T19:51:49.221Z,3.93
2022-10-19T19:54:34.240Z,3.97
2022-10-19T19:57:19.465Z,3.89
2022-10-19T20:00:05.315Z,3.94
2022-10-19T20:02:58.031Z,3.85
2022-10-19T20:05:42.963Z,3.82
2022-10-19T20:08:27.869Z,3.82
2022-10-19T20:11:13.948Z,3.76
2022-10-19T20:13:58.803Z,3.75
2022-10-19T20:16:43.841Z,3.72
2022-10-19T20:19:28.849Z,3.68
2022-10-19T20:22:13.819Z,3.72
2022-10-19T20:24:58.839Z,3.68
2022-10-19T20:27:43.831Z,3.59
2022-10-19T20:30:28.672Z,3.57
2022-10-19T20:33:13.736Z,3.55
2022-10-19T20:36:10.919Z,3.57
2022-10-19T20:38:58.074Z,3.54
2022-10-19T20:41:42.727Z,3.47
2022-10-19T20:44:27.692Z,3.46
2022-10-19T20:47:12.641Z,3.43
2022-10-19T20:49:57.706Z,3.33
2022-10-19T20:52:42.589Z,3.32
2022-10-19T20:55:27.487Z,3.31
2022-10-19T20:58:12.413Z,3.34
2022-10-19T21:01:06.180Z,3.27
2022-10-19T21:03:54.018Z,3.25
2022-10-19T21:06:41.259Z,3.16
2022-10-19T21:09:26.395Z,3.21
2022-10-19T21:12:11.384Z,3.13
2022-10-19T21:14:56.353Z,3.09
2022-10-19T21:17:41.264Z,3.02
2022-10-19T21:20:27.136Z,2.99
2022-10-19T21:23:11.968Z,2.89
2022-10-19T21:25:57.688Z,2.82
2022-10-19T21:28:50.291Z,2.80
2022-10-19T21:31:37.206Z,2.70
2022-10-19T21:34:24.657Z,2.71
2022-10-19T21:37:09.585Z,2.69
2022-10-19T21:39:54.868Z,2.64
2022-10-19T21:42:39.690Z,2.62
2022-10-19T21:45:30.166Z,2.53
2022-10-19T21:48:15.359Z,2.50
2022-10-19T21:51:09.386Z,2.50
2022-10-19T21:53:54.195Z,2.46
2022-10-19T21:56:39.283Z,2.44
2022-10-19T21:59:24.611Z,2.45
2022-10-19T22:02:09.592Z,2.40
2022-10-19T22:04:54.558Z,2.33
2022-10-19T22:07:39.484Z,2.32
2022-10-19T22:10:25.013Z,2.27
2022-10-19T22:13:09.947Z,2.19
2022-10-19T22:15:55.085Z,2.15
2022-10-19T22:18:40.390Z,2.10
2022-10-19T22:21:28.623Z,2.18
2022-10-19T22:24:15.159Z,2.17
2022-10-19T22:27:00.237Z,2.16
2022-10-19T22:29:45.222Z,2.16
2022-10-19T22:32:30.066Z,2.17
2022-10-19T22:35:15.031Z,2.17
2022-10-19T22:38:00.181Z,2.08
2022-10-19T22:40:45.134Z,2.04
2022-10-19T22:43:30.242Z,2.01
2022-10-19T22:46:15.136Z,2.07
2022-10-19T22:49:00.303Z,1.99
2022-10-19T22:51:45.161Z,1.98
2022-10-19T22:54:29.908Z,1.97
2022-10-19T22:57:14.940Z,1.95
2022-10-19T22:59:59.872Z,1.96
2022-10-19T23:02:45.003Z,1.92
2022-10-19T23:05:29.937Z,1.92
2022-10-19T23:08:14.821Z,1.86
2022-10-19T23:10:59.717Z,1.80
2022-10-19T23:13:44.918Z,1.76
2022-10-19T23:16:29.942Z,1.83
2022-10-19T23:19:14.594Z,1.84
2022-10-19T23:21:59.233Z,1.80
2022-10-19T23:24:44.207Z,1.72
2022-10-19T23:27:29.200Z,1.74
2022-10-19T23:30:14.054Z,1.78
2022-10-19T23:32:59.035Z,1.78
2022-10-19T23:35:44.305Z,1.88
2022-10-19T23:38:29.007Z,1.86
2022-10-19T23:41:15.162Z,1.80
2022-10-19T23:44:00.063Z,1.79
2022-10-19T23:46:45.320Z,1.72
2022-10-19T23:49:30.262Z,1.67
2022-10-19T23:52:14.983Z,1.59
2022-10-19T23:54:59.945Z,1.56
2022-10-19T23:57:45.156Z,1.48
